Time;durP1;ratioP1;P1;durP2;ratioP2;P2;SDS_P1;SDS_P2;PMS_P1;PMS_P2;Temp;Humidity;BMP_temperature;BMP_pressure;BME280_temperature;BME280_humidity;BME280_pressure;Samples;Min_cycle;Max_cycle;Signal;HPM_P1;HPM_P2
2022/05/11 00:00:56;;;;;;;6.55;5.70;;;17.10;99.90;;;;;;5033975;28;20387;-84
2022/05/11 00:03:21;;;;;;;6.13;5.60;;;17.20;99.90;;;;;;5033729;28;20426;-84
2022/05/11 00:05:47;;;;;;;5.90;5.35;;;17.20;99.90;;;;;;5034026;28;20737;-84
2022/05/11 00:08:13;;;;;;;5.93;5.43;;;16.90;99.90;;;;;;5034036;28;20406;-84
2022/05/11 00:10:39;;;;;;;5.95;5.45;;;16.80;99.90;;;;;;5033782;28;20458;-84
2022/05/11 00:13:05;;;;;;;5.88;5.35;;;17.00;99.90;;;;;;5033888;28;20383;-84
2022/05/11 00:15:31;;;;;;;5.72;5.22;;;17.00;99.90;;;;;;5033600;28;20502;-84
2022/05/11 00:17:57;;;;;;;6.13;5.53;;;17.10;99.90;;;;;;5032242;28;20391;-84
2022/05/11 00:20:23;;;;;;;6.07;5.60;;;17.00;99.90;;;;;;5033588;28;20406;-84
2022/05/11 00:22:54;;;;;;;5.90;5.50;;;16.90;99.90;;;;;;5033797;28;20402;-84
2022/05/11 00:25:20;;;;;;;6.30;5.70;;;17.10;99.90;;;;;;5032201;28;20409;-84
2022/05/11 00:27:46;;;;;;;6.10;5.47;;;16.80;99.90;;;;;;5036025;28;20441;-84
2022/05/11 00:30:11;;;;;;;6.10;5.60;;;16.70;99.90;;;;;;5033440;28;20395;-84
2022/05/11 00:32:37;;;;;;;6.15;5.65;;;16.80;99.90;;;;;;5036008;28;20740;-84
2022/05/11 00:35:04;;;;;;;6.07;5.55;;;16.60;99.90;;;;;;5033380;28;20474;-84
2022/05/11 00:37:30;;;;;;;6.20;5.80;;;16.50;99.90;;;;;;5048593;28;20411;-84
2022/05/11 00:39:58;;;;;;;5.63;5.13;;;16.50;99.90;;;;;;5031970;28;20446;-83
2022/05/11 00:42:24;;;;;;;5.47;5.07;;;16.60;99.90;;;;;;5032518;28;20799;-83
2022/05/11 00:44:49;;;;;;;5.50;5.10;;;16.70;99.90;;;;;;5031998;28;20945;-86
2022/05/11 00:47:24;;;;;;;6.03;5.53;;;16.70;99.90;;;;;;5033455;28;20470;-83
2022/05/11 00:49:58;;;;;;;6.10;5.57;;;16.50;99.90;;;;;;5032893;28;20383;-83
2022/05/11 00:52:38;;;;;;;5.65;5.25;;;16.30;99.90;;;;;;5033152;28;20421;-83
2022/05/11 00:55:08;;;;;;;6.38;5.78;;;16.20;99.90;;;;;;5032967;28;20387;-83
2022/05/11 00:57:45;;;;;;;6.57;6.07;;;16.30;99.90;;;;;;5033006;28;20391;-83
2022/05/11 01:00:12;;;;;;;6.20;5.70;;;16.20;99.90;;;;;;5031485;28;20872;-83
2022/05/11 01:02:42;;;;;;;6.47;5.90;;;16.10;99.90;;;;;;5032875;28;20868;-83
2022/05/11 01:05:09;;;;;;;6.18;5.68;;;16.10;99.90;;;;;;5032803;28;20414;-83
2022/05/11 01:07:36;;;;;;;6.35;5.93;;;16.10;99.90;;;;;;5032959;28;20387;-83
2022/05/11 01:10:03;;;;;;;5.80;5.40;;;16.10;99.90;;;;;;5032957;28;20736;-84
2022/05/11 01:12:43;;;;;;;6.07;5.57;;;16.10;99.90;;;;;;5024343;28;20391;-84
2022/05/11 01:15:12;;;;;;;7.10;5.50;;;16.10;99.90;;;;;;5032566;28;20804;-84
2022/05/11 01:17:39;;;;;;;6.25;5.78;;;16.20;99.90;;;;;;5032482;28;20394;-84
2022/05/11 01:20:08;;;;;;;6.00;5.60;;;16.10;99.90;;;;;;5032590;28;20380;-84
2022/05/11 01:23:13;;;;;;;6.47;5.97;;;16.10;99.90;;;;;;5032867;28;20759;-84
2022/05/11 01:25:39;;;;;;;6.40;5.80;;;16.10;99.90;;;;;;5032476;28;20976;-84
2022/05/11 01:28:11;;;;;;;6.22;5.63;;;15.90;99.90;;;;;;5032441;28;20465;-83
2022/05/11 01:30:43;;;;;;;6.15;5.65;;;15.90;99.90;;;;;;5032533;28;20383;-83
2022/05/11 01:33:13;;;;;;;5.78;5.30;;;15.90;99.90;;;;;;5030770;28;20438;-84
2022/05/11 01:35:45;;;;;;;6.38;5.65;;;16.10;99.90;;;;;;5032369;28;20398;-84
2022/05/11 01:38:50;;;;;;;6.07;5.57;;;15.90;99.90;;;;;;5032470;28;20391;-84
2022/05/11 01:41:26;;;;;;;5.88;5.47;;;15.80;99.90;;;;;;5031201;28;20426;-84
2022/05/11 01:43:52;;;;;;;5.70;5.20;;;15.70;99.90;;;;;;5032322;28;20403;-83
2022/05/11 01:46:18;;;;;;;6.10;5.60;;;15.90;99.90;;;;;;5032455;28;20437;-83
2022/05/11 01:48:44;;;;;;;6.17;5.77;;;15.80;99.90;;;;;;5031731;28;20387;-83
2022/05/11 01:51:15;;;;;;;6.43;5.90;;;15.80;99.90;;;;;;5026041;28;20443;-83
2022/05/11 01:53:42;;;;;;;5.95;5.47;;;15.70;99.90;;;;;;5018292;28;20387;-83
2022/05/11 01:56:09;;;;;;;5.78;5.28;;;15.70;99.90;;;;;;5031727;28;20437;-83
2022/05/11 01:58:36;;;;;;;5.82;5.32;;;15.70;99.90;;;;;;5032102;28;20465;-83
2022/05/11 02:01:02;;;;;;;5.95;5.55;;;15.90;99.90;;;;;;5032513;28;20399;-84
2022/05/11 02:03:28;;;;;;;5.22;4.93;;;15.90;99.90;;;;;;5031872;28;20395;-84
2022/05/11 02:08:40;;;;;;;5.60;5.20;;;15.80;99.90;;;;;;5032284;28;20434;-84
2022/05/11 02:11:06;;;;;;;5.70;5.30;;;15.90;99.90;;;;;;5031942;28;20428;-84
2022/05/11 02:13:33;;;;;;;5.72;5.32;;;15.90;99.90;;;;;;5029549;28;20410;-84
2022/05/11 02:15:59;;;;;;;5.70;5.35;;;15.70;99.90;;;;;;5031636;28;20379;-84
2022/05/11 02:18:25;;;;;;;6.10;5.60;;;15.60;99.90;;;;;;5024697;28;20399;-84
2022/05/11 02:20:51;;;;;;;6.03;5.60;;;15.60;99.90;;;;;;5030137;28;20381;-84
2022/05/11 02:23:19;;;;;;;6.13;5.63;;;15.40;99.90;;;;;;5030489;28;20384;-84
2022/05/11 02:25:46;;;;;;;6.60;6.00;;;15.40;99.90;;;;;;5030603;28;20497;-84
2022/05/11 02:28:13;;;;;;;6.03;5.53;;;15.40;99.90;;;;;;5034323;28;20394;-83
2022/05/11 02:30:41;;;;;;;6.53;6.03;;;15.40;99.90;;;;;;5031995;28;20470;-83
2022/05/11 02:33:07;;;;;;;6.15;5.75;;;15.30;99.90;;;;;;5031897;28;20390;-83
2022/05/11 02:35:33;;;;;;;6.20;5.70;;;15.30;99.90;;;;;;5031941;28;20788;-83
2022/05/11 02:38:01;;;;;;;5.97;5.47;;;15.30;99.90;;;;;;5031944;28;20394;-83
2022/05/11 02:40:31;;;;;;;6.28;5.82;;;15.30;99.90;;;;;;5031817;28;20395;-84
2022/05/11 02:42:57;;;;;;;6.53;6.00;;;15.30;99.90;;;;;;5031670;28;20415;-83
2022/05/11 02:45:24;;;;;;;6.45;5.95;;;15.10;99.90;;;;;;5031674;28;20408;-83
2022/05/11 02:47:52;;;;;;;6.78;6.18;;;15.10;99.90;;;;;;5031416;28;20387;-83
2022/05/11 02:50:24;;;;;;;6.57;6.07;;;15.10;99.90;;;;;;5031685;28;20387;-83
2022/05/11 02:52:50;;;;;;;6.32;5.93;;;15.00;99.90;;;;;;5031923;28;20387;-84
2022/05/11 02:55:16;;;;;;;6.47;6.03;;;14.90;99.90;;;;;;5031701;28;20379;-84
2022/05/11 02:57:41;;;;;;;6.33;5.90;;;14.90;99.90;;;;;;5025389;28;20885;-84
2022/05/11 03:00:11;;;;;;;6.60;6.20;;;15.10;99.90;;;;;;5028754;28;20383;-84
2022/05/11 03:02:37;;;;;;;6.97;6.47;;;14.90;99.90;;;;;;5031820;28;20736;-83
2022/05/11 03:05:04;;;;;;;6.88;6.38;;;15.00;99.90;;;;;;5033364;28;20411;-83
2022/05/11 03:07:29;;;;;;;6.90;6.35;;;15.00;99.90;;;;;;5035207;28;20732;-83
2022/05/11 03:09:55;;;;;;;6.97;6.37;;;14.90;99.90;;;;;;5035043;28;20375;-84
2022/05/11 03:12:22;;;;;;;6.57;6.10;;;14.90;99.90;;;;;;5031745;28;20383;-83
2022/05/11 03:14:49;;;;;;;7.20;6.40;;;14.90;99.90;;;;;;5033573;28;20403;-84
2022/05/11 03:17:15;;;;;;;6.68;6.18;;;14.90;99.90;;;;;;5034882;28;20379;-84
2022/05/11 03:19:41;;;;;;;6.43;6.03;;;14.90;99.90;;;;;;5034832;28;20781;-83
2022/05/11 03:22:06;;;;;;;6.60;6.13;;;14.90;99.90;;;;;;5034804;28;20481;-86
2022/05/11 03:24:32;;;;;;;6.80;6.40;;;14.90;99.90;;;;;;5034691;28;20406;-83
2022/05/11 03:26:57;;;;;;;7.40;6.80;;;14.80;99.90;;;;;;5034602;28;20393;-84
2022/05/11 03:29:23;;;;;;;6.75;6.22;;;14.70;99.90;;;;;;5034697;28;20375;-83
2022/05/11 03:34:36;;;;;;;6.22;5.82;;;14.60;99.90;;;;;;5034726;28;20383;-86
2022/05/11 03:37:09;;;;;;;6.73;6.17;;;14.70;99.90;;;;;;5034676;28;20487;-86
2022/05/11 03:39:35;;;;;;;6.77;6.27;;;14.80;99.90;;;;;;5032684;28;20480;-86
2022/05/11 03:42:01;;;;;;;8.20;6.20;;;14.80;99.90;;;;;;5032574;28;20387;-84
2022/05/11 03:44:28;;;;;;;6.70;6.20;;;14.70;99.90;;;;;;5034206;28;20497;-84
2022/05/11 03:46:53;;;;;;;6.77;6.27;;;14.80;99.90;;;;;;5042859;28;20469;-83
2022/05/11 03:49:19;;;;;;;6.63;6.22;;;14.60;99.90;;;;;;5036098;28;20801;-84
2022/05/11 03:51:45;;;;;;;6.30;5.90;;;14.60;99.90;;;;;;5033895;28;20387;-84
2022/05/11 03:54:10;;;;;;;6.57;6.00;;;14.60;99.90;;;;;;5033667;28;20903;-84
2022/05/11 03:56:36;;;;;;;6.97;6.47;;;14.60;99.90;;;;;;5034109;28;20446;-85
2022/05/11 03:59:02;;;;;;;7.10;6.40;;;14.50;99.90;;;;;;5034051;28;20889;-84
2022/05/11 04:01:27;;;;;;;6.93;6.50;;;14.50;99.90;;;;;;5033980;28;20450;-84
2022/05/11 04:03:53;;;;;;;6.68;6.18;;;14.60;99.90;;;;;;5034019;28;20480;-85
2022/05/11 04:06:18;;;;;;;7.10;6.63;;;14.50;99.90;;;;;;5034044;28;20522;-85
2022/05/11 04:08:44;;;;;;;6.80;6.30;;;14.50;99.90;;;;;;5033792;28;20415;-85
2022/05/11 04:11:11;;;;;;;7.40;6.70;;;14.50;99.90;;;;;;5033992;28;20880;-85
2022/05/11 04:13:38;;;;;;;6.70;6.20;;;14.60;99.90;;;;;;5033923;28;20763;-84
2022/05/11 04:16:04;;;;;;;6.90;6.35;;;14.50;99.90;;;;;;5032977;28;20379;-84
2022/05/11 04:18:29;;;;;;;6.50;6.00;;;14.60;99.90;;;;;;5033465;28;20387;-84
2022/05/11 04:20:55;;;;;;;6.63;6.13;;;14.50;99.90;;;;;;5033653;28;20391;-85
2022/05/11 04:23:21;;;;;;;6.63;6.13;;;14.50;99.90;;;;;;5033684;28;20393;-84
2022/05/11 04:25:46;;;;;;;7.10;6.60;;;14.40;99.90;;;;;;5033535;28;20410;-85
2022/05/11 04:28:12;;;;;;;6.28;5.78;;;14.40;99.90;;;;;;5036138;28;20776;-85
2022/05/11 04:30:39;;;;;;;6.85;6.45;;;14.40;99.90;;;;;;5033550;28;20899;-84
2022/05/11 04:33:06;;;;;;;6.53;6.03;;;14.40;99.90;;;;;;5033653;28;20743;-84
2022/05/11 04:35:31;;;;;;;7.10;6.60;;;14.40;99.90;;;;;;5033404;28;20449;-85
2022/05/11 04:38:01;;;;;;;7.22;6.65;;;14.40;99.90;;;;;;5035817;28;20381;-84
2022/05/11 04:40:28;;;;;;;6.90;6.40;;;14.60;99.90;;;;;;5030661;28;20396;-84
2022/05/11 04:42:55;;;;;;;7.40;6.90;;;14.60;99.90;;;;;;5030482;28;20395;-85
2022/05/11 04:45:21;;;;;;;6.40;6.00;;;14.50;99.90;;;;;;5032257;28;20411;-84
2022/05/11 04:47:47;;;;;;;6.90;6.30;;;14.50;99.90;;;;;;5032897;28;20383;-84
2022/05/11 04:50:15;;;;;;;7.27;6.67;;;14.50;99.90;;;;;;5033191;28;20394;-84
2022/05/11 04:52:41;;;;;;;17.30;15.45;;;14.40;99.90;;;;;;5033060;28;20391;-84
2022/05/11 04:55:09;;;;;;;18.73;15.35;;;14.70;99.90;;;;;;5032506;28;20907;-84
2022/05/11 04:57:36;;;;;;;8.07;7.38;;;14.80;99.90;;;;;;5032849;28;20398;-84
2022/05/11 05:00:10;;;;;;;7.80;7.30;;;14.80;99.90;;;;;;5032808;28;20402;-84
2022/05/11 05:02:36;;;;;;;7.90;7.18;;;14.70;99.90;;;;;;5033056;28;20441;-85
2022/05/11 05:05:05;;;;;;;8.13;7.53;;;14.70;99.90;;;;;;5032569;28;20410;-84
2022/05/11 05:07:34;;;;;;;7.22;6.72;;;14.60;99.90;;;;;;5028309;28;20386;-84
2022/05/11 05:10:01;;;;;;;8.35;7.75;;;14.60;99.90;;;;;;5027269;28;20383;-84
2022/05/11 05:12:27;;;;;;;8.02;7.32;;;14.70;99.90;;;;;;5032842;28;20410;-84
2022/05/11 05:14:53;;;;;;;7.65;7.05;;;14.70;99.90;;;;;;5024653;28;20465;-84
2022/05/11 05:17:18;;;;;;;7.47;6.95;;;14.50;99.90;;;;;;5032782;28;20387;-84
2022/05/11 05:19:45;;;;;;;8.23;7.25;;;14.60;99.90;;;;;;5031978;28;20406;-85
2022/05/11 05:22:11;;;;;;;7.90;7.30;;;14.80;99.90;;;;;;5030338;28;20399;-85
2022/05/11 05:24:37;;;;;;;7.53;6.93;;;14.80;99.90;;;;;;5032516;28;20485;-86
2022/05/11 05:27:03;;;;;;;7.40;6.90;;;14.90;99.90;;;;;;5031669;28;20466;-86
2022/05/11 05:32:14;;;;;;;9.70;8.90;;;14.80;99.90;;;;;;5031629;28;20466;-85
2022/05/11 05:34:43;;;;;;;8.75;8.15;;;14.80;99.90;;;;;;5029589;28;20734;-86
2022/05/11 05:37:09;;;;;;;8.90;8.30;;;15.00;99.90;;;;;;5045296;28;20724;-85
2022/05/11 05:39:35;;;;;;;10.18;9.38;;;15.00;99.90;;;;;;5018489;28;20804;-86
2022/05/11 05:42:00;;;;;;;10.73;9.93;;;14.90;99.90;;;;;;5031900;28;20391;-85
2022/05/11 05:44:30;;;;;;;9.33;8.63;;;15.00;99.90;;;;;;5032244;28;20406;-86
2022/05/11 05:47:01;;;;;;;9.33;8.50;;;15.40;99.90;;;;;;5032741;28;20757;-86
2022/05/11 05:49:28;;;;;;;8.90;8.20;;;15.70;99.90;;;;;;5030812;28;20883;-87
2022/05/11 05:51:54;;;;;;;9.30;8.50;;;15.90;99.90;;;;;;5032233;28;20395;-87
2022/05/11 05:54:20;;;;;;;8.00;7.40;;;15.90;99.90;;;;;;5030871;28;20383;-87
2022/05/11 05:56:45;;;;;;;8.32;7.72;;;15.70;99.90;;;;;;5046403;28;20402;-86
2022/05/11 05:59:14;;;;;;;7.43;6.83;;;15.80;99.90;;;;;;5032208;28;20395;-87
2022/05/11 06:01:40;;;;;;;7.53;7.03;;;15.80;99.90;;;;;;5032284;28;20437;-88
2022/05/11 06:04:05;;;;;;;7.93;7.32;;;15.90;99.90;;;;;;5032274;28;20407;-88
2022/05/11 06:06:31;;;;;;;7.80;7.30;;;15.90;99.90;;;;;;5032401;28;21045;-88
2022/05/11 06:08:57;;;;;;;7.97;7.40;;;16.00;99.90;;;;;;5032069;28;20437;-91
2022/05/11 06:11:23;;;;;;;10.00;9.27;;;16.10;99.90;;;;;;5032335;28;20379;-87
2022/05/11 06:13:48;;;;;;;12.38;11.20;;;16.30;99.90;;;;;;5031963;28;20418;-87
2022/05/11 06:16:16;;;;;;;10.82;9.93;;;16.50;99.90;;;;;;5032457;28;20418;-87
2022/05/11 06:18:46;;;;;;;10.48;9.57;;;16.50;99.90;;;;;;5031820;28;20413;-87
2022/05/11 06:21:13;;;;;;;11.52;10.65;;;16.60;99.90;;;;;;5032365;28;20741;-89
2022/05/11 06:23:39;;;;;;;12.85;11.75;;;16.70;99.90;;;;;;5031889;28;20386;-88
2022/05/11 06:26:05;;;;;;;12.07;11.27;;;16.80;99.90;;;;;;5031939;28;20388;-88
2022/05/11 06:28:30;;;;;;;12.65;11.63;;;16.80;99.90;;;;;;5033165;28;20529;-88
2022/05/11 06:30:56;;;;;;;12.23;11.13;;;16.90;99.90;;;;;;5031988;28;20387;-87
2022/05/11 06:33:22;;;;;;;12.32;11.32;;;17.00;99.90;;;;;;5031859;28;20391;-87
2022/05/11 06:35:47;;;;;;;12.30;11.30;;;17.00;99.90;;;;;;5040691;28;20395;-88
2022/05/11 06:38:13;;;;;;;13.43;12.13;;;17.00;99.90;;;;;;5031949;28;20761;-89
2022/05/11 06:40:39;;;;;;;15.43;13.60;;;17.10;99.90;;;;;;5034362;28;20394;-85
2022/05/11 06:43:05;;;;;;;14.60;13.10;;;17.20;99.90;;;;;;5044798;28;20405;-89
2022/05/11 06:45:31;;;;;;;13.00;11.60;;;17.30;99.90;;;;;;5030446;28;20857;-86
2022/05/11 06:47:57;;;;;;;14.80;12.00;;;17.30;99.90;;;;;;5035052;28;20398;-86
2022/05/11 06:50:27;;;;;;;13.95;12.57;;;17.20;99.90;;;;;;5035262;28;20415;-88
2022/05/11 06:52:54;;;;;;;9.77;8.88;;;17.10;99.90;;;;;;5037746;28;20394;-90
2022/05/11 07:00:49;;;;;;;7.80;7.00;;;17.20;99.90;;;;;;5033788;28;20457;-89
2022/05/11 07:03:17;;;;;;;7.05;6.55;;;17.40;99.90;;;;;;5033812;28;20524;-88
2022/05/11 07:05:44;;;;;;;7.10;6.40;;;17.80;99.90;;;;;;5035469;28;20987;-87
2022/05/11 07:08:10;;;;;;;6.40;5.72;;;17.50;99.90;;;;;;5035340;28;20391;-89
2022/05/11 07:10:42;;;;;;;6.53;6.03;;;17.50;99.90;;;;;;5035411;28;20390;-89
2022/05/11 07:13:09;;;;;;;5.90;5.50;;;17.70;99.90;;;;;;5034444;28;20395;-89
2022/05/11 07:15:35;;;;;;;6.60;6.10;;;17.80;99.90;;;;;;5033894;28;20480;-89
2022/05/11 07:18:04;;;;;;;6.15;5.65;;;17.90;99.90;;;;;;5027992;28;20780;-88
2022/05/11 07:20:36;;;;;;;6.57;5.97;;;17.90;99.90;;;;;;5032080;28;20418;-90
2022/05/11 07:23:03;;;;;;;6.40;5.80;;;18.10;99.90;;;;;;5033452;28;20779;-89
2022/05/11 07:25:30;;;;;;;7.07;5.78;;;18.20;99.90;;;;;;5033590;28;20411;-89
2022/05/11 07:27:57;;;;;;;5.90;5.40;;;18.20;99.90;;;;;;5033642;28;20391;-87
2022/05/11 07:30:26;;;;;;;5.20;4.83;;;18.40;99.90;;;;;;5035547;28;20395;-92
2022/05/11 07:32:52;;;;;;;5.82;5.20;;;18.30;99.90;;;;;;5049682;28;20387;-93
2022/05/11 07:35:18;;;;;;;8.20;5.70;;;18.40;99.90;;;;;;5037207;28;20798;-90
2022/05/11 07:37:47;;;;;;;6.65;5.28;;;18.50;99.90;;;;;;5050528;28;20923;-92
2022/05/11 07:40:15;;;;;;;6.75;5.20;;;18.70;99.90;;;;;;5036005;28;20383;-93
2022/05/11 07:42:43;;;;;;;5.50;5.00;;;18.80;99.90;;;;;;5035050;28;20391;-89
2022/05/11 07:45:11;;;;;;;4.90;4.50;;;18.80;99.90;;;;;;5034623;28;20442;-90
2022/05/11 07:47:37;;;;;;;5.20;4.70;;;18.80;99.90;;;;;;5035068;28;20387;-90
2022/05/11 07:50:03;;;;;;;5.80;5.20;;;18.90;99.90;;;;;;5030757;28;20397;-91
2022/05/11 07:52:29;;;;;;;5.53;5.03;;;19.00;99.90;;;;;;5034747;28;20902;-90
2022/05/11 07:54:54;;;;;;;6.05;5.40;;;19.10;99.90;;;;;;5033958;28;20399;-89
2022/05/11 08:00:07;;;;;;;4.85;4.20;;;19.30;99.90;;;;;;5036165;28;20422;-91
2022/05/11 08:02:35;;;;;;;4.65;4.25;;;19.40;99.90;;;;;;5033560;28;20744;-90
2022/05/11 08:05:04;;;;;;;5.78;4.40;;;19.50;99.90;;;;;;5032984;28;20938;-90
2022/05/11 08:07:42;;;;;;;5.10;4.60;;;19.60;99.90;;;;;;5033032;28;20402;-89
2022/05/11 08:10:11;;;;;;;4.55;4.15;;;19.70;99.90;;;;;;5032894;28;20374;-90
2022/05/11 08:12:37;;;;;;;4.70;3.97;;;19.90;99.90;;;;;;5030668;28;20478;-90
2022/05/11 08:15:04;;;;;;;5.60;3.80;;;19.90;99.90;;;;;;5033951;28;20490;-90
2022/05/11 08:17:34;;;;;;;4.22;3.83;;;20.00;99.90;;;;;;5033117;28;20387;-91
2022/05/11 08:20:01;;;;;;;4.35;3.80;;;20.10;99.90;;;;;;5032696;28;20390;-90
2022/05/11 08:22:28;;;;;;;4.20;3.90;;;20.20;99.90;;;;;;5033988;28;20419;-89
2022/05/11 08:24:56;;;;;;;4.50;3.65;;;20.20;99.90;;;;;;5033047;28;20419;-91
2022/05/11 08:27:30;;;;;;;5.50;3.83;;;20.30;99.90;;;;;;5032679;28;20603;-89
2022/05/11 08:35:25;;;;;;;4.43;4.00;;;20.60;99.90;;;;;;5032279;28;20386;-91
2022/05/11 08:37:51;;;;;;;4.40;4.00;;;20.80;99.90;;;;;;5032712;28;20387;-90
2022/05/11 08:40:47;;;;;;;4.32;3.92;;;20.90;99.90;;;;;;5034062;28;20406;-90
2022/05/11 08:43:15;;;;;;;5.97;4.07;;;21.20;99.90;;;;;;5032292;28;20447;-91
2022/05/11 08:45:49;;;;;;;3.80;3.50;;;21.40;99.90;;;;;;5033486;28;20453;-90
2022/05/11 08:48:58;;;;;;;3.88;3.55;;;21.50;99.90;;;;;;5031997;28;20395;-90
2022/05/11 08:51:41;;;;;;;3.58;3.28;;;21.50;99.90;;;;;;5025241;28;20415;-90
2022/05/11 08:54:21;;;;;;;3.92;3.42;;;21.70;99.90;;;;;;5031223;28;20387;-90
2022/05/11 08:56:49;;;;;;;4.77;3.40;;;21.80;99.90;;;;;;5032250;28;20383;-90
2022/05/11 08:59:21;;;;;;;4.00;3.70;;;22.10;99.90;;;;;;5032184;28;20741;-92
2022/05/11 09:02:15;;;;;;;3.72;3.33;;;22.20;99.90;;;;;;5031734;28;20393;-90
2022/05/11 09:04:47;;;;;;;4.05;3.65;;;22.40;99.90;;;;;;5028826;28;20822;-90
2022/05/11 09:07:13;;;;;;;4.20;3.70;;;22.30;99.90;;;;;;5033265;28;20422;-90
2022/05/11 09:09:39;;;;;;;4.40;3.90;;;22.30;99.90;;;;;;5033271;28;20415;-89
2022/05/11 09:12:06;;;;;;;4.88;3.65;;;22.10;99.90;;;;;;5032979;28;20750;-90
2022/05/11 09:14:39;;;;;;;7.50;4.07;;;22.20;99.90;;;;;;5033327;28;20893;-92
2022/05/11 09:17:19;;;;;;;6.40;3.90;;;22.20;99.90;;;;;;5047211;28;20888;-89
2022/05/11 09:19:53;;;;;;;4.50;3.67;;;22.20;99.90;;;;;;5032378;28;20399;-88
2022/05/11 09:22:24;;;;;;;5.07;3.90;;;22.70;99.90;;;;;;5031612;28;20456;-89
2022/05/11 09:24:57;;;;;;;10.65;4.00;;;22.90;99.90;;;;;;5030660;28;20407;-91
2022/05/11 09:27:27;;;;;;;19.57;4.10;;;23.20;99.90;;;;;;5031427;28;20398;-89
2022/05/11 09:30:02;;;;;;;4.18;3.78;;;23.50;99.90;;;;;;5033188;28;20386;-89
2022/05/11 09:32:38;;;;;;;3.70;3.40;;;23.50;99.90;;;;;;5032768;28;20383;-89
2022/05/11 09:35:34;;;;;;;5.13;4.00;;;23.70;99.90;;;;;;5032520;28;20386;-89
2022/05/11 09:38:06;;;;;;;6.50;3.97;;;24.10;99.90;;;;;;5031773;28;20433;-91
2022/05/11 09:40:49;;;;;;;9.10;3.97;;;24.20;99.90;;;;;;5031563;28;20383;-91
2022/05/11 09:43:35;;;;;;;16.10;3.95;;;23.80;99.90;;;;;;5029753;28;20462;-90
2022/05/11 09:46:22;;;;;;;5.20;3.97;;;23.80;99.90;;;;;;5032591;28;20733;-89
2022/05/11 09:49:02;;;;;;;11.00;3.83;;;23.80;99.90;;;;;;5031637;28;20379;-91
2022/05/11 09:51:44;;;;;;;5.13;3.30;;;24.00;99.90;;;;;;5029962;28;20387;-91
2022/05/11 09:54:24;;;;;;;3.95;3.40;;;23.90;99.90;;;;;;5032486;28;20898;-91
2022/05/11 09:56:56;;;;;;;4.88;3.33;;;24.00;99.90;;;;;;5031532;28;20411;-90
2022/05/11 09:59:31;;;;;;;4.60;3.38;;;24.40;99.90;;;;;;5031272;28;20864;-90
2022/05/11 10:02:32;;;;;;;5.22;3.55;;;24.90;99.90;;;;;;5031084;28;20936;-90
2022/05/11 10:05:06;;;;;;;3.88;3.47;;;24.80;99.90;;;;;;5029132;28;20473;-89
2022/05/11 10:07:45;;;;;;;5.18;3.10;;;24.80;99.90;;;;;;5031302;28;20739;-90
2022/05/11 10:10:20;;;;;;;3.28;3.08;;;25.20;99.90;;;;;;5030019;28;20410;-90
2022/05/11 10:12:47;;;;;;;4.50;3.20;;;25.20;99.90;;;;;;5029490;28;20394;-91
2022/05/11 10:24:08;;;;;;;8.40;3.45;;;26.10;99.90;;;;;;5035488;28;20382;-90
2022/05/11 10:26:56;;;;;;;4.70;3.10;;;26.30;99.90;;;;;;5035029;28;20852;-90
2022/05/11 10:29:39;;;;;;;3.00;2.70;;;26.50;99.90;;;;;;5025523;28;20935;-90
2022/05/11 10:32:24;;;;;;;11.85;3.15;;;26.40;99.90;;;;;;5032338;28;20449;-90
2022/05/11 10:34:53;;;;;;;22.00;3.60;;;26.40;99.90;;;;;;5032317;28;20975;-90
2022/05/11 10:37:30;;;;;;;13.20;3.05;;;26.40;99.90;;;;;;5038151;28;20446;-91
2022/05/11 10:40:07;;;;;;;6.18;3.15;;;26.20;99.90;;;;;;5035782;28;20451;-91
2022/05/11 10:42:48;;;;;;;6.13;3.00;;;25.90;99.90;;;;;;5035026;28;20399;-89
2022/05/11 10:45:34;;;;;;;4.40;3.30;;;25.80;99.90;;;;;;5034006;28;20419;-89
2022/05/11 10:48:29;;;;;;;3.30;3.00;;;26.40;99.90;;;;;;5034724;28;20394;-88
2022/05/11 10:51:19;;;;;;;4.40;3.05;;;26.90;99.90;;;;;;5035521;28;20418;-90
2022/05/11 10:53:56;;;;;;;5.13;2.83;;;27.30;99.90;;;;;;5035293;28;20465;-88
2022/05/11 10:56:45;;;;;;;8.60;2.53;;;27.00;99.90;;;;;;5035465;28;20386;-89
2022/05/11 10:59:36;;;;;;;5.05;2.85;;;27.00;99.90;;;;;;5045072;28;20378;-89
2022/05/11 11:02:26;;;;;;;5.00;2.90;;;27.30;99.90;;;;;;5036635;28;20391;-90
2022/05/11 11:05:13;;;;;;;3.20;2.60;;;27.60;99.90;;;;;;5028308;28;20457;-90
2022/05/11 11:07:54;;;;;;;10.70;2.72;;;27.30;99.90;;;;;;5035076;28;20445;-88
2022/05/11 11:10:35;;;;;;;2.97;2.25;;;27.00;99.90;;;;;;5018949;28;20733;-89
2022/05/11 11:13:14;;;;;;;4.03;2.73;;;27.10;99.90;;;;;;5035549;28;20515;-86
2022/05/11 11:15:42;;;;;;;13.52;2.40;;;27.50;99.90;;;;;;5035144;28;20478;-89
2022/05/11 11:18:12;;;;;;;3.47;1.90;;;27.50;99.90;;;;;;5033387;28;20444;-91
2022/05/11 11:20:42;;;;;;;5.47;2.58;;;27.40;99.90;;;;;;5031624;28;20478;-88
2022/05/11 11:23:14;;;;;;;5.10;2.47;;;27.20;99.90;;;;;;5044514;28;20393;-87
2022/05/11 11:25:42;;;;;;;34.15;3.88;;;27.30;99.90;;;;;;5029154;28;20494;-89
2022/05/11 11:28:14;;;;;;;7.45;3.08;;;27.70;99.90;;;;;;5034897;28;20387;-86
2022/05/11 11:30:59;;;;;;;4.53;2.42;;;28.20;99.90;;;;;;5036093;28;20474;-86
2022/05/11 11:33:54;;;;;;;3.55;2.08;;;28.50;99.90;;;;;;5034831;28;20375;-87
2022/05/11 11:36:28;;;;;;;7.25;2.65;;;28.90;99.90;;;;;;5012742;28;20775;-89
2022/05/11 11:38:58;;;;;;;24.77;3.40;;;28.70;99.90;;;;;;5034407;28;20860;-86
2022/05/11 11:41:28;;;;;;;6.93;2.53;;;27.70;99.90;;;;;;5034482;28;20829;-88
2022/05/11 11:44:30;;;;;;;3.47;2.20;;;27.40;99.90;;;;;;5045353;28;20377;-87
2022/05/11 11:46:58;;;;;;;2.70;2.00;;;27.50;99.90;;;;;;5032319;28;20752;-88
2022/05/11 11:49:27;;;;;;;2.70;1.90;;;27.60;99.90;;;;;;5031235;28;20394;-88
2022/05/11 11:52:05;;;;;;;2.80;2.03;;;27.20;99.90;;;;;;5033631;28;20493;-88
2022/05/11 11:54:37;;;;;;;1.95;1.75;;;27.40;99.90;;;;;;5032220;28;20398;-88
2022/05/11 11:57:09;;;;;;;2.00;1.80;;;27.60;99.50;;;;;;5030164;28;20394;-87
2022/05/11 11:59:42;;;;;;;3.70;2.20;;;27.40;99.50;;;;;;5033687;28;20896;-86
2022/05/11 12:02:14;;;;;;;2.17;1.98;;;27.70;99.90;;;;;;5029927;28;20412;-87
2022/05/11 12:05:10;;;;;;;3.00;1.80;;;27.80;99.10;;;;;;5026393;28;20407;-87
2022/05/11 12:16:12;;;;;;;3.42;1.58;;;27.80;99.40;;;;;;5034192;28;20399;-88
2022/05/11 12:18:41;;;;;;;2.07;1.63;;;28.30;99.20;;;;;;5034320;28;20746;-88
2022/05/11 12:21:12;;;;;;;2.15;1.73;;;28.80;99.20;;;;;;5026303;28;20430;-86
2022/05/11 12:23:46;;;;;;;2.53;1.73;;;28.50;97.80;;;;;;5028468;28;20390;-88
2022/05/11 12:26:28;;;;;;;2.50;1.90;;;28.30;96.80;;;;;;5023885;28;20400;-87
2022/05/11 12:29:54;;;;;;;3.83;1.75;;;28.10;98.00;;;;;;5031003;28;20414;-86
2022/05/11 12:31:58;;;;;;;3.40;1.70;;;27.80;96.80;;;;;;5027151;28;20883;-87
2022/05/11 12:34:27;;;;;;;2.30;1.60;;;27.70;97.10;;;;;;5033103;28;20752;-89
2022/05/11 12:36:53;;;;;;;5.28;2.00;;;28.10;97.10;;;;;;5029557;28;20391;-88
2022/05/11 12:39:33;;;;;;;3.38;1.45;;;27.90;96.70;;;;;;5033860;28;20392;-88
2022/05/11 12:42:00;;;;;;;3.45;1.60;;;27.60;97.10;;;;;;5032846;28;21094;-87
2022/05/11 12:44:30;;;;;;;6.83;1.50;;;27.60;97.10;;;;;;5033148;28;20768;-88
2022/05/11 12:46:59;;;;;;;3.03;1.60;;;27.60;96.50;;;;;;5033842;28;20398;-89
2022/05/11 12:49:26;;;;;;;2.42;1.63;;;27.90;96.10;;;;;;5033093;28;20379;-87
2022/05/11 12:52:05;;;;;;;3.78;1.70;;;27.80;96.50;;;;;;5033287;28;20486;-88
2022/05/11 12:54:32;;;;;;;2.80;1.70;;;27.90;96.20;;;;;;5033600;28;20920;-86
2022/05/11 12:57:07;;;;;;;1.83;1.60;;;28.00;97.10;;;;;;5033244;28;20872;-88
2022/05/11 12:59:35;;;;;;;2.67;1.70;;;27.90;97.20;;;;;;5033300;28;20402;-87
2022/05/11 13:02:27;;;;;;;4.85;1.75;;;28.20;97.20;;;;;;5033158;28;20395;-88
2022/05/11 13:04:58;;;;;;;3.17;1.70;;;28.30;97.30;;;;;;5032727;28;20399;-87
2022/05/11 13:07:34;;;;;;;2.80;1.70;;;28.50;97.30;;;;;;5033137;28;20391;-88
2022/05/11 13:10:04;;;;;;;3.75;1.90;;;28.50;95.00;;;;;;5031249;28;20393;-88
2022/05/11 13:12:32;;;;;;;10.43;2.00;;;28.70;95.00;;;;;;5033061;28;20383;-87
2022/05/11 13:15:00;;;;;;;15.85;2.50;;;28.70;95.10;;;;;;5028151;28;20418;-88
2022/05/11 13:17:29;;;;;;;5.35;2.08;;;28.90;95.60;;;;;;5032434;28;20391;-87
2022/05/11 13:20:01;;;;;;;6.35;1.75;;;29.00;96.80;;;;;;5031206;28;20384;-87
2022/05/11 13:22:29;;;;;;;1.95;1.75;;;28.50;94.70;;;;;;5032965;28;20461;-87
2022/05/11 13:25:08;;;;;;;6.10;2.03;;;28.00;94.30;;;;;;5042590;28;20761;-88
2022/05/11 13:27:49;;;;;;;3.88;2.10;;;28.00;95.40;;;;;;5033412;28;20380;-86
2022/05/11 13:30:31;;;;;;;2.00;1.80;;;28.50;95.50;;;;;;5032843;28;20822;-87
2022/05/11 13:32:59;;;;;;;9.05;2.20;;;28.80;94.40;;;;;;5032835;28;20402;-87
2022/05/11 13:35:39;;;;;;;17.50;2.53;;;28.80;95.80;;;;;;5032319;28;20478;-87
2022/05/11 13:38:10;;;;;;;4.57;2.10;;;29.00;95.10;;;;;;5032507;28;20406;-87
2022/05/11 13:40:50;;;;;;;3.05;1.90;;;28.40;95.20;;;;;;5032495;28;20401;-88
2022/05/11 13:43:25;;;;;;;3.78;1.80;;;28.20;95.30;;;;;;5032776;28;20434;-89